Date,TemperatureHighF,TemperatureAvgF,TemperatureLowF,DewpointHighF,DewpointAvgF,DewpointLowF,HumidityHigh,HumidityAvg,HumidityLow,PressureMaxIn,PressureMinIn,WindSpeedMaxMPH,WindSpeedAvgMPH,GustSpeedMaxMPH,PrecipitationSumIn
2014-1-1,30.2,26.3,22.6,22.1,19.1,14.9,83,74,66,30.42,30.10,7,1,7,0.00
2014-1-2,28.8,24.5,10.2,27.2,20.3,6.1,95,84,78,30.11,29.73,15,3,15,0.00
2014-1-3,16.5,10.8,6.8,9.6,1.4,-5.3,83,67,50,30.52,29.99,15,4,15,0.00
2014-1-4,37.0,21.6,5.4,13.2,3.6,-8.8,69,46,36,30.46,30.13,18,3,19,0.00
2014-1-5,48.6,33.1,16.0,43.5,24.3,8.0,89,70,56,30.19,29.42,9,0,10,0.08
2014-1-6,49.6,18.3,-6.2,46.8,13.6,-12.2,95,81,71,30.26,29.35,36,10,36,0.31
2014-1-7,3.7,-2.3,-9.0,-2.7,-8.5,-15.0,74,74,74,30.51,30.25,22,9,24,0.00
2014-1-8,23.0,14.2,3.2,19.0,5.1,-3.2,87,67,51,30.56,30.43,10,2,10,0.00
2014-1-9,33.4,25.4,16.9,24.0,18.7,13.3,88,76,58,30.68,30.40,9,0,9,0.04
2014-1-10,45.5,38.4,31.5,42.2,35.6,24.0,95,90,72,30.41,29.91,7,1,8,0.04
2014-1-11,56.8,47.6,36.7,52.9,42.7,28.6,94,84,61,29.92,29.37,21,6,25,0.47
2014-1-12,36.7,34.0,28.2,34.0,28.3,22.9,95,80,64,30.11,29.68,13,2,15,0.00
2014-1-13,55.9,45.5,32.7,46.5,33.7,23.4,93,66,39,30.04,29.72,16,4,20,0.24
2014-1-14,48.7,41.7,30.4,46.5,37.4,26.1,93,85,62,29.89,29.69,10,2,10,0.20
2014-1-15,39.0,32.5,24.3,32.6,21.3,10.6,88,64,47,30.08,29.80,18,5,18,0.00
2014-1-16,33.1,27.3,20.8,15.4,13.0,9.3,66,55,47,30.06,29.85,13,3,13,0.00
2014-1-17,37.6,33.2,25.7,31.4,26.7,14.5,93,78,47,29.96,29.78,21,4,21,0.00
2014-1-18,18.1,16.5,14.7,9.2,5.7,4.0,73,62,58,30.11,29.95,12,4,12,0.00
2014-1-19,32.0,25.4,16.3,21.4,17.0,9.2,88,71,55,29.95,29.73,22,7,22,0.00
2014-1-20,36.3,32.6,22.1,29.1,22.1,12.3,82,65,56,30.00,29.63,19,8,19,0.00
2014-1-21,21.9,15.1,2.5,15.7,5.7,-11.1,86,66,50,30.17,29.91,13,6,13,0.00
2014-1-22,10.9,5.0,-2.6,-3.2,-8.8,-15.8,52,52,52,30.21,30.08,12,2,12,0.00
2014-1-23,14.0,10.1,6.3,2.7,-3.7,-7.2,60,53,52,30.53,30.05,13,5,17,0.00
2014-1-24,16.5,8.6,1.9,-0.1,-5.6,-11.2,53,51,46,30.57,29.89,21,9,21,0.00
2014-1-25,26.1,20.5,13.3,23.6,14.3,-0.2,93,78,43,29.89,29.40,25,10,27,0.00
2014-1-26,32.2,16.9,8.6,19.3,9.3,2.6,79,72,58,29.91,29.57,16,7,16,0.00
2014-1-27,41.7,20.0,2.1,28.4,6.0,-13.2,85,54,43,30.36,29.47,25,8,25,0.08
2014-1-28,8.4,2.3,-4.9,-7.2,-12.8,-19.5,48,48,48,30.55,30.34,10,4,11,0.00
2014-1-29,16.9,7.7,-1.7,-1.0,-8.2,-16.5,49,47,43,30.40,30.28,19,8,19,0.00
2014-1-30,31.6,19.3,3.0,8.4,-0.4,-12.6,50,42,35,30.43,30.00,13,4,13,0.00
2014-1-31,39.2,34.9,31.5,25.4,16.8,8.2,74,48,36,30.22,30.00,15,5,15,0.00